Time;durP1;ratioP1;P1;durP2;ratioP2;P2;SDS_P1;SDS_P2;PMS_P1;PMS_P2;Temp;Humidity;BMP_temperature;BMP_pressure;BME280_temperature;BME280_humidity;BME280_pressure;Samples;Min_cycle;Max_cycle;Signal;HPM_P1;HPM_P2
2021/06/02 06:28:38;;;;;;;13.65;4.97;;;23.90;43.90;;;;;;5027822;28;20420;-58
2021/06/02 06:31:18;;;;;;;14.52;4.40;;;23.90;44.30;;;;;;4987363;28;20865;-60
2021/06/02 06:33:44;;;;;;;9.88;4.15;;;23.80;45.00;;;;;;4992072;28;20050;-60
2021/06/02 06:36:10;;;;;;;13.52;4.47;;;23.90;44.90;;;;;;4990621;28;20068;-64
2021/06/02 06:39:16;;;;;;;13.98;5.20;;;23.90;45.50;;;;;;5007971;28;20030;-56
2021/06/02 06:41:42;;;;;;;14.27;4.72;;;23.90;45.20;;;;;;5028350;28;20048;-59
2021/06/02 06:44:08;;;;;;;9.00;3.88;;;23.90;45.40;;;;;;5010599;28;20061;-56
2021/06/02 06:46:34;;;;;;;12.27;4.55;;;23.90;45.70;;;;;;4998992;28;20130;-59
2021/06/02 06:49:00;;;;;;;8.65;4.15;;;24.00;45.60;;;;;;5004869;28;20503;-57
2021/06/02 06:51:27;;;;;;;10.02;4.25;;;24.00;45.70;;;;;;5007115;28;20443;-57
2021/06/02 06:53:53;;;;;;;10.27;4.25;;;24.00;45.70;;;;;;5007324;28;20683;-64
2021/06/02 06:56:18;;;;;;;12.70;4.35;;;24.10;46.20;;;;;;5023083;28;20109;-64
2021/06/02 06:58:44;;;;;;;8.30;3.83;;;24.30;45.70;;;;;;5020592;28;20758;-62
2021/06/02 07:01:14;;;;;;;14.48;4.30;;;24.40;45.60;;;;;;5006107;28;20029;-61
2021/06/02 07:03:41;;;;;;;16.23;4.45;;;24.40;46.20;;;;;;5008668;28;20034;-59
2021/06/02 07:06:07;;;;;;;9.23;3.83;;;24.50;45.40;;;;;;5007389;28;20022;-64
2021/06/02 07:08:32;;;;;;;15.07;4.22;;;24.50;45.40;;;;;;4994610;28;20231;-67
2021/06/02 07:11:01;;;;;;;12.20;4.80;;;24.50;45.40;;;;;;5023134;28;20133;-59
2021/06/02 07:13:27;;;;;;;11.75;4.10;;;24.40;45.70;;;;;;5022623;28;20034;-64
2021/06/02 07:15:54;;;;;;;14.05;3.85;;;24.30;46.00;;;;;;5024197;28;20088;-54
2021/06/02 07:18:20;;;;;;;9.98;3.42;;;24.40;46.10;;;;;;4986867;28;20061;-55
2021/06/02 07:20:46;;;;;;;16.08;4.38;;;24.50;46.10;;;;;;4973171;28;20069;-54
2021/06/02 07:23:11;;;;;;;8.10;3.72;;;24.50;45.90;;;;;;4991718;28;20080;-54
2021/06/02 07:25:40;;;;;;;7.65;3.95;;;24.60;45.90;;;;;;5023671;28;20039;-53
2021/06/02 07:28:08;;;;;;;7.13;3.67;;;24.60;46.10;;;;;;5004101;28;20030;-56
2021/06/02 07:30:34;;;;;;;5.22;3.67;;;24.60;46.30;;;;;;5008987;28;20085;-62
2021/06/02 07:32:59;;;;;;;8.13;3.70;;;24.50;46.50;;;;;;4990304;28;20066;-61
2021/06/02 07:35:25;;;;;;;8.68;3.80;;;24.40;46.60;;;;;;4991880;28;20026;-64
2021/06/02 07:37:51;;;;;;;6.32;3.67;;;24.40;46.80;;;;;;5019490;28;20044;-57
2021/06/02 07:40:17;;;;;;;10.98;4.63;;;24.40;47.60;;;;;;4978240;28;20030;-58
2021/06/02 07:42:43;;;;;;;9.48;3.80;;;24.40;47.90;;;;;;4976888;28;20328;-61
2021/06/02 07:45:09;;;;;;;7.88;4.50;;;24.40;47.60;;;;;;5008330;28;20038;-60
2021/06/02 07:47:35;;;;;;;7.85;3.50;;;24.60;47.30;;;;;;4977833;28;20089;-62
2021/06/02 07:50:01;;;;;;;9.65;3.83;;;24.80;47.20;;;;;;4976501;28;20468;-64
2021/06/02 07:52:26;;;;;;;7.25;3.83;;;24.70;46.80;;;;;;4974411;28;20030;-59
2021/06/02 07:54:52;;;;;;;4.78;3.85;;;24.60;47.60;;;;;;5010548;28;20657;-61
2021/06/02 07:57:18;;;;;;;6.18;3.20;;;24.60;47.60;;;;;;4978805;28;20046;-61
2021/06/02 07:59:44;;;;;;;6.03;3.45;;;24.60;47.80;;;;;;4979691;28;20113;-61
2021/06/02 08:02:09;;;;;;;5.38;3.10;;;24.50;48.10;;;;;;4979925;28;20050;-58
2021/06/02 08:04:35;;;;;;;5.38;3.83;;;24.50;48.00;;;;;;4977889;28;20656;-61
2021/06/02 08:07:01;;;;;;;8.15;3.78;;;24.40;48.20;;;;;;5008606;28;20031;-58
2021/06/02 08:09:27;;;;;;;7.65;3.58;;;24.30;48.30;;;;;;4977386;28;20118;-59
2021/06/02 08:11:53;;;;;;;8.07;3.53;;;24.40;48.50;;;;;;4971807;28;20026;-57
2021/06/02 08:14:19;;;;;;;11.88;3.63;;;24.40;48.40;;;;;;4976233;28;20400;-58
2021/06/02 08:16:44;;;;;;;4.30;3.10;;;24.40;48.50;;;;;;4976386;28;20096;-55
2021/06/02 08:19:10;;;;;;;6.55;3.55;;;24.50;48.70;;;;;;5005818;28;20088;-57
2021/06/02 08:21:37;;;;;;;8.75;3.50;;;24.40;48.70;;;;;;4975396;28;20601;-56
2021/06/02 08:24:03;;;;;;;5.50;3.28;;;24.40;48.80;;;;;;4977871;28;20050;-56
2021/06/02 08:26:28;;;;;;;8.15;4.70;;;24.40;48.70;;;;;;5009186;28;20202;-56
2021/06/02 08:28:56;;;;;;;12.05;4.38;;;24.40;47.00;;;;;;4976270;28;20585;-55
2021/06/02 08:31:22;;;;;;;10.15;4.07;;;24.20;48.00;;;;;;4979308;28;20069;-55
2021/06/02 08:33:48;;;;;;;6.18;3.60;;;24.10;48.20;;;;;;5007531;28;20513;-55
2021/06/02 08:36:14;;;;;;;9.57;3.67;;;24.00;48.40;;;;;;4978358;28;20030;-55
2021/06/02 08:38:40;;;;;;;10.93;4.28;;;24.00;48.60;;;;;;4980308;28;20029;-56
2021/06/02 08:41:06;;;;;;;8.18;3.92;;;23.90;48.60;;;;;;5006611;28;20018;-55
2021/06/02 08:43:33;;;;;;;11.75;3.70;;;23.90;48.70;;;;;;4971475;28;20045;-54
2021/06/02 08:45:59;;;;;;;11.23;4.13;;;23.90;48.70;;;;;;4977088;28;20033;-55
2021/06/02 08:48:25;;;;;;;9.27;4.25;;;23.90;48.80;;;;;;4974623;28;20042;-55
2021/06/02 08:50:51;;;;;;;10.20;4.00;;;23.80;48.80;;;;;;4974683;28;20518;-54
2021/06/02 08:53:17;;;;;;;7.00;4.07;;;23.80;48.90;;;;;;4972603;28;20032;-54
2021/06/02 08:55:45;;;;;;;8.88;3.78;;;23.80;48.90;;;;;;4975888;28;20038;-55
2021/06/02 08:58:17;;;;;;;8.95;4.07;;;23.80;48.90;;;;;;4976046;28;20034;-55
2021/06/02 09:00:43;;;;;;;6.80;3.88;;;23.80;48.90;;;;;;4978336;28;20033;-52
2021/06/02 09:03:09;;;;;;;8.40;3.47;;;23.80;48.90;;;;;;4976373;28;20027;-55
2021/06/02 09:05:34;;;;;;;7.63;4.20;;;23.80;48.90;;;;;;4973772;28;20030;-55
2021/06/02 09:08:01;;;;;;;10.27;3.85;;;23.80;49.00;;;;;;4983954;28;20138;-55
2021/06/02 09:10:27;;;;;;;7.93;3.83;;;23.80;49.00;;;;;;4976924;28;20066;-54
2021/06/02 09:12:59;;;;;;;11.68;3.72;;;23.70;48.90;;;;;;4979523;28;20068;-54
2021/06/02 09:15:24;;;;;;;8.80;4.13;;;23.70;49.00;;;;;;4976719;28;20071;-49
2021/06/02 09:18:00;;;;;;;8.77;3.78;;;23.90;48.50;;;;;;4976573;28;20030;-49
2021/06/02 09:20:36;;;;;;;13.48;3.70;;;24.00;47.30;;;;;;4975099;28;20766;-56
2021/06/02 09:23:22;;;;;;;11.52;3.97;;;24.00;47.50;;;;;;4976526;28;20045;-55
2021/06/02 09:25:48;;;;;;;7.13;3.80;;;23.80;47.40;;;;;;4978487;28;20045;-53
2021/06/02 09:28:13;;;;;;;10.35;3.70;;;23.80;47.00;;;;;;4977032;28;20042;-54
2021/06/02 09:30:40;;;;;;;10.77;3.53;;;23.80;48.00;;;;;;4975152;28;20710;-54
2021/06/02 09:33:06;;;;;;;16.30;4.38;;;23.80;47.30;;;;;;5005914;28;20059;-57
2021/06/02 09:35:39;;;;;;;48.72;5.93;;;23.80;48.40;;;;;;4976037;28;20041;-57
2021/06/02 09:38:06;;;;;;;37.97;4.57;;;23.90;48.60;;;;;;4976128;28;20050;-57
2021/06/02 09:40:38;;;;;;;33.17;4.90;;;23.70;47.10;;;;;;5006816;28;20677;-59
2021/06/02 09:43:04;;;;;;;22.85;4.05;;;23.60;47.20;;;;;;5001939;28;20054;-57
2021/06/02 09:45:31;;;;;;;24.17;3.75;;;23.60;48.00;;;;;;4985976;28;20130;-58
2021/06/02 09:47:58;;;;;;;13.45;3.92;;;23.60;47.20;;;;;;4995566;28;20033;-62
2021/06/02 09:50:31;;;;;;;16.15;3.88;;;23.60;46.40;;;;;;4825125;28;2172511;-59
2021/06/02 09:57:29;;;;;;;5.05;2.20;;;25.40;36.30;;;;;;5040559;28;20728;-84
2021/06/02 10:00:00;;;;;;;7.15;2.55;;;25.70;35.00;;;;;;5038273;28;20083;-83
2021/06/02 10:02:26;;;;;;;3.40;2.13;;;25.80;32.60;;;;;;4929128;28;20047;-84
2021/06/02 10:05:08;;;;;;;4.40;2.28;;;25.90;33.00;;;;;;4633615;28;4302330;-87
2021/06/02 10:07:43;;;;;;;6.25;2.60;;;26.00;32.70;;;;;;5023724;28;20026;-88
2021/06/02 10:10:13;;;;;;;;;;;25.60;32.10;;;;;;5025728;28;20299;-85
2021/06/02 10:12:56;;;;;;;4.28;2.53;;;25.70;32.80;;;;;;5024787;28;19940;-84
2021/06/02 10:15:26;;;;;;;2.90;2.60;;;26.10;32.40;;;;;;5040696;28;20092;-85
2021/06/02 10:17:52;;;;;;;6.15;2.85;;;26.20;32.70;;;;;;5006238;28;20694;-89
2021/06/02 10:20:18;;;;;;;3.92;2.80;;;26.20;32.30;;;;;;5024414;28;20030;-82
2021/06/02 10:22:45;;;;;;;4.18;2.72;;;26.40;34.30;;;;;;5039156;28;20116;-86
2021/06/02 10:25:12;;;;;;;3.95;2.75;;;26.40;32.80;;;;;;5020752;28;20513;-83
2021/06/02 10:27:40;;;;;;;3.42;2.63;;;26.20;31.20;;;;;;5035474;28;20320;-85
2021/06/02 10:30:07;;;;;;;5.30;2.53;;;26.00;31.80;;;;;;5035233;28;20233;-85
2021/06/02 10:32:33;;;;;;;2.80;2.60;;;26.40;31.70;;;;;;5002796;28;20048;-83
2021/06/02 10:34:59;;;;;;;2.88;2.38;;;26.40;31.70;;;;;;5011522;28;20029;-86
2021/06/02 10:37:26;;;;;;;9.85;2.70;;;26.60;30.30;;;;;;5035318;28;20352;-85
2021/06/02 10:39:57;;;;;;;7.22;2.20;;;26.70;31.20;;;;;;4964393;28;20080;-89
2021/06/02 10:42:38;;;;;;;6.70;2.78;;;26.80;31.30;;;;;;5024460;28;20021;-89
2021/06/02 10:45:31;;;;;;;4.90;2.80;;;26.90;30.80;;;;;;5042307;28;20033;-92
2021/06/02 10:48:02;;;;;;;4.15;2.47;;;26.80;31.50;;;;;;5025826;28;20036;-83
2021/06/02 10:50:31;;;;;;;5.18;2.40;;;27.20;31.00;;;;;;5011324;28;20030;-86
2021/06/02 10:53:00;;;;;;;3.53;2.25;;;27.00;31.30;;;;;;5027994;28;20033;-84
2021/06/02 10:55:44;;;;;;;2.85;2.10;;;27.10;30.90;;;;;;5031931;28;20081;-84
2021/06/02 10:58:21;;;;;;;3.55;2.28;;;26.90;31.10;;;;;;5041576;28;20076;-84
2021/06/02 11:01:19;;;;;;;5.20;2.55;;;26.90;30.80;;;;;;5032266;28;20421;-83
2021/06/02 11:03:46;;;;;;;7.43;2.50;;;26.90;30.90;;;;;;5015750;28;20038;-86
2021/06/02 11:09:42;;;;;;;3.20;2.30;;;27.10;31.60;;;;;;5036888;28;20043;-84
2021/06/02 11:12:11;;;;;;;2.67;2.22;;;27.10;32.50;;;;;;5005706;28;20084;-83
2021/06/02 11:14:39;;;;;;;4.22;2.45;;;26.90;31.00;;;;;;5005244;28;20049;-88
2021/06/02 11:17:16;;;;;;;6.90;2.58;;;27.20;31.10;;;;;;5011280;28;20382;-85
2021/06/02 11:19:57;;;;;;;5.15;2.47;;;27.10;31.10;;;;;;5013696;28;20030;-84
2021/06/02 11:22:28;;;;;;;3.20;2.38;;;27.60;31.50;;;;;;5003008;28;20030;-83
2021/06/02 11:25:00;;;;;;;4.22;2.38;;;27.70;32.00;;;;;;5017668;28;20044;-84
2021/06/02 11:27:34;;;;;;;5.22;2.13;;;27.60;30.80;;;;;;4999018;28;20037;-84
2021/06/02 11:30:12;;;;;;;3.15;2.53;;;27.60;31.20;;;;;;5033392;28;20054;-84
2021/06/02 11:32:49;;;;;;;4.45;2.17;;;28.10;30.60;;;;;;5017364;28;20083;-85
2021/06/02 11:35:16;;;;;;;3.10;2.35;;;27.90;29.90;;;;;;5017028;28;20048;-85
2021/06/02 11:37:46;;;;;;;3.97;2.33;;;27.90;29.90;;;;;;5032490;28;20030;-88
2021/06/02 11:40:15;;;;;;;4.18;2.42;;;27.80;29.80;;;;;;5030220;28;20061;-86
2021/06/02 11:42:52;;;;;;;4.32;2.17;;;28.10;29.50;;;;;;5010029;28;20029;-83
2021/06/02 11:45:26;;;;;;;6.88;2.15;;;28.10;30.00;;;;;;4995773;28;20442;-91
2021/06/02 11:53:15;;;;;;;3.20;1.95;;;27.70;31.50;;;;;;5047529;28;20472;-76
2021/06/02 11:55:41;;;;;;;7.25;2.60;;;28.00;31.40;;;;;;5012994;27;20228;-76
2021/06/02 11:58:06;;;;;;;2.90;2.17;;;28.30;29.50;;;;;;5012623;28;20064;-78
2021/06/02 12:00:35;;;;;;;6.07;2.00;;;28.10;29.30;;;;;;5010779;28;20118;-88
2021/06/02 12:03:08;;;;;;;2.30;2.10;;;28.00;29.40;;;;;;5012761;28;20478;-90
2021/06/02 12:05:38;;;;;;;4.10;2.47;;;28.10;30.00;;;;;;5012570;28;20028;-89
2021/06/02 12:08:05;;;;;;;4.13;1.90;;;28.30;28.50;;;;;;4992882;28;20056;-83
2021/06/02 12:10:32;;;;;;;4.60;1.88;;;28.60;29.80;;;;;;5011003;28;20475;-85
2021/06/02 12:12:59;;;;;;;2.92;1.80;;;28.70;29.50;;;;;;5012203;28;20030;-85
2021/06/02 12:15:25;;;;;;;3.88;2.10;;;28.60;28.20;;;;;;4994402;28;20029;-85
2021/06/02 12:17:51;;;;;;;2.72;1.95;;;28.30;28.20;;;;;;5011301;28;20098;-86
2021/06/02 12:20:20;;;;;;;4.95;2.10;;;28.10;29.30;;;;;;5014135;28;20844;-85
2021/06/02 12:22:46;;;;;;;4.00;2.00;;;27.60;29.00;;;;;;5001242;28;20045;-77
2021/06/02 12:25:17;;;;;;;4.15;2.00;;;28.20;29.60;;;;;;4976974;28;20112;-83
2021/06/02 12:27:53;;;;;;;4.13;1.88;;;28.10;28.60;;;;;;5006360;28;20398;-84
2021/06/02 12:30:25;;;;;;;4.80;2.20;;;28.30;30.80;;;;;;5011096;28;20030;-84
2021/06/02 12:33:12;;;;;;;3.78;1.95;;;27.70;29.00;;;;;;5009027;28;20033;-84
2021/06/02 12:35:44;;;;;;;5.15;2.17;;;28.10;29.20;;;;;;4997759;28;20022;-83
2021/06/02 12:38:13;;;;;;;3.63;1.67;;;27.70;28.90;;;;;;5012608;28;20029;-85
2021/06/02 12:40:41;;;;;;;5.70;2.13;;;27.90;29.10;;;;;;5009007;28;20032;-84
2021/06/02 12:43:16;;;;;;;2.92;1.70;;;28.20;29.60;;;;;;4994782;28;20041;-84
2021/06/02 12:45:43;;;;;;;3.13;1.80;;;28.10;29.80;;;;;;4998972;28;20576;-84
2021/06/02 12:48:09;;;;;;;2.05;1.85;;;27.90;28.70;;;;;;5009879;28;20125;-84
2021/06/02 12:50:43;;;;;;;3.42;1.88;;;28.00;28.80;;;;;;4998249;28;20101;-84
2021/06/02 12:53:09;;;;;;;5.75;1.90;;;27.60;28.40;;;;;;5009780;28;20037;-84
2021/06/02 12:55:40;;;;;;;3.53;1.75;;;27.90;29.20;;;;;;4998522;28;20034;-84
2021/06/02 12:58:10;;;;;;;2.28;2.08;;;27.80;29.10;;;;;;5015968;28;20490;-84
2021/06/02 13:00:38;;;;;;;5.22;2.17;;;27.80;28.90;;;;;;5011225;28;20744;-84
2021/06/02 13:03:04;;;;;;;5.07;2.08;;;28.00;30.60;;;;;;5012393;28;20148;-84
2021/06/02 13:05:29;;;;;;;1.90;1.80;;;27.80;29.00;;;;;;4995368;28;21595;-84
2021/06/02 13:08:08;;;;;;;5.60;1.98;;;27.70;29.10;;;;;;4996310;28;20042;-84
2021/06/02 13:10:34;;;;;;;2.53;2.20;;;27.90;32.40;;;;;;4985386;28;20037;-84
2021/06/02 13:13:01;;;;;;;4.65;2.30;;;27.80;30.60;;;;;;4997454;28;20022;-84
2021/06/02 13:15:32;;;;;;;4.30;2.13;;;27.90;29.60;;;;;;4986260;28;20065;-84
2021/06/02 13:17:58;;;;;;;4.60;2.03;;;27.80;29.40;;;;;;4980689;28;20022;-84
2021/06/02 13:20:30;;;;;;;2.38;2.15;;;27.90;30.00;;;;;;4995332;28;20424;-84
2021/06/02 13:23:06;;;;;;;6.18;2.30;;;27.70;31.50;;;;;;5001150;28;20038;-84
2021/06/02 13:25:32;;;;;;;3.95;2.20;;;27.80;29.90;;;;;;5001086;28;20088;-84
2021/06/02 13:28:01;;;;;;;4.63;2.00;;;28.20;31.20;;;;;;4981718;28;20037;-84
2021/06/02 13:30:46;;;;;;;7.20;2.30;;;27.50;29.50;;;;;;4994221;28;20027;-84
2021/06/02 13:33:13;;;;;;;6.57;2.05;;;27.50;30.40;;;;;;4987602;28;20503;-84
2021/06/02 13:35:40;;;;;;;4.57;1.90;;;27.80;30.30;;;;;;4995728;28;20057;-84
2021/06/02 13:38:06;;;;;;;2.17;1.75;;;27.80;29.60;;;;;;4996899;28;20025;-84
2021/06/02 13:40:39;;;;;;;6.15;2.10;;;27.70;31.20;;;;;;5003321;28;20030;-84
2021/06/02 13:43:16;;;;;;;3.45;1.80;;;27.50;28.80;;;;;;4998688;28;20056;-85
2021/06/02 13:45:55;;;;;;;2.45;1.75;;;27.60;29.10;;;;;;4982023;28;20030;-84
2021/06/02 13:48:23;;;;;;;2.70;2.28;;;27.40;28.20;;;;;;5002349;28;20122;-84
2021/06/02 13:50:50;;;;;;;3.78;1.85;;;27.40;29.00;;;;;;4996329;28;20022;-84
2021/06/02 13:53:15;;;;;;;4.45;1.90;;;27.50;29.90;;;;;;5000432;28;20029;-85
2021/06/02 13:55:41;;;;;;;2.40;1.85;;;27.50;29.50;;;;;;4972897;28;20030;-84
2021/06/02 13:58:14;;;;;;;3.67;2.03;;;27.40;29.20;;;;;;4986456;28;20031;-84
2021/06/02 14:00:41;;;;;;;4.30;2.13;;;27.20;28.90;;;;;;4999945;28;20021;-84
2021/06/02 14:03:07;;;;;;;3.30;1.65;;;27.30;29.50;;;;;;4982544;28;20120;-84
2021/06/02 14:05:33;;;;;;;2.50;1.90;;;27.20;29.10;;;;;;4979773;28;20033;-84
2021/06/02 14:07:58;;;;;;;3.13;2.15;;;27.20;30.00;;;;;;5007668;28;20033;-84
2021/06/02 14:10:24;;;;;;;2.15;1.65;;;27.40;29.70;;;;;;4996926;28;20021;-84
2021/06/02 14:12:50;;;;;;;6.57;2.15;;;27.30;28.90;;;;;;4996534;28;20033;-85
2021/06/02 14:15:15;;;;;;;3.30;1.80;;;27.20;29.20;;;;;;4995365;28;20022;-85
2021/06/02 14:17:41;;;;;;;3.72;2.08;;;27.30;28.30;;;;;;4994918;28;20463;-85
2021/06/02 14:20:08;;;;;;;2.30;1.80;;;27.10;27.80;;;;;;4993470;28;20088;-85
2021/06/02 14:22:35;;;;;;;4.05;1.80;;;27.10;28.40;;;;;;4985475;28;20022;-84
2021/06/02 14:25:02;;;;;;;2.58;1.85;;;27.20;29.50;;;;;;4977123;28;20087;-85
2021/06/02 14:27:28;;;;;;;2.15;1.95;;;27.10;28.40;;;;;;4996548;28;20033;-85
2021/06/02 14:29:53;;;;;;;6.10;2.30;;;27.10;28.70;;;;;;4963684;28;20014;-84
2021/06/02 14:32:19;;;;;;;5.00;1.83;;;27.10;28.70;;;;;;4982460;28;20042;-85
2021/06/02 14:34:45;;;;;;;4.10;1.77;;;27.10;28.40;;;;;;4996473;28;20030;-84
2021/06/02 14:37:10;;;;;;;2.15;1.67;;;27.20;28.60;;;;;;4995991;28;20108;-84
2021/06/02 14:39:36;;;;;;;3.45;1.83;;;27.30;27.70;;;;;;4996325;28;20105;-83
2021/06/02 14:42:02;;;;;;;2.47;1.50;;;27.10;27.40;;;;;;5008340;28;20029;-84
2021/06/02 14:44:28;;;;;;;3.50;1.52;;;27.20;27.70;;;;;;4977101;28;20216;-84
2021/06/02 14:46:53;;;;;;;2.88;1.83;;;27.10;27.80;;;;;;4995958;28;20113;-84
2021/06/02 14:49:19;;;;;;;4.90;2.00;;;27.10;28.20;;;;;;4975087;28;20034;-83
2021/06/02 14:51:45;;;;;;;1.80;1.70;;;27.00;28.70;;;;;;4993915;28;20048;-84
2021/06/02 14:54:11;;;;;;;3.25;1.90;;;27.00;28.70;;;;;;4993465;28;20029;-84
2021/06/02 14:56:37;;;;;;;2.33;1.85;;;27.00;28.10;;;;;;5024843;28;20022;-84
2021/06/02 14:59:03;;;;;;;4.60;1.95;;;27.20;28.20;;;;;;4993079;28;20060;-84
2021/06/02 15:01:31;;;;;;;2.78;1.90;;;27.30;28.70;;;;;;4966237;28;20026;-84
2021/06/02 15:03:57;;;;;;;5.72;2.22;;;27.20;29.70;;;;;;4995195;28;20705;-84
2021/06/02 15:06:23;;;;;;;3.05;2.00;;;27.00;30.00;;;;;;4976968;28;20053;-83
2021/06/02 15:08:49;;;;;;;5.60;1.90;;;27.20;29.20;;;;;;4999374;28;20513;-83
2021/06/02 15:11:15;;;;;;;2.17;1.80;;;27.20;28.70;;;;;;5010339;28;20061;-83
2021/06/02 15:13:40;;;;;;;3.85;1.88;;;27.10;29.30;;;;;;4993724;28;20541;-83
2021/06/02 15:16:06;;;;;;;6.30;1.90;;;27.10;29.30;;;;;;5009648;28;20030;-83
2021/06/02 15:18:32;;;;;;;3.65;2.25;;;27.10;29.90;;;;;;4996972;28;20026;-83
2021/06/02 15:20:59;;;;;;;4.63;1.90;;;27.20;29.50;;;;;;4994302;28;20026;-83
2021/06/02 15:23:24;;;;;;;2.00;1.70;;;27.20;29.20;;;;;;4984339;28;20018;-83
2021/06/02 15:25:51;;;;;;;3.70;1.65;;;27.10;29.50;;;;;;4984760;28;20386;-83
2021/06/02 15:28:21;;;;;;;2.70;1.90;;;27.00;29.70;;;;;;4991717;28;20050;-84
2021/06/02 15:30:46;;;;;;;8.77;2.78;;;27.00;30.20;;;;;;4969186;28;20041;-84
2021/06/02 15:33:12;;;;;;;5.05;2.10;;;27.00;30.20;;;;;;4981188;28;20281;-84
2021/06/02 15:35:38;;;;;;;2.60;2.00;;;27.00;29.70;;;;;;4993570;28;20651;-84
2021/06/02 15:38:07;;;;;;;3.53;2.20;;;27.00;29.50;;;;;;4994449;28;20359;-84
2021/06/02 15:40:33;;;;;;;5.88;1.92;;;27.10;29.00;;;;;;4994544;28;20709;-85
2021/06/02 15:42:58;;;;;;;3.33;1.77;;;27.20;29.30;;;;;;4974294;28;20045;-83
2021/06/02 15:45:25;;;;;;;2.47;2.20;;;27.20;30.10;;;;;;4984859;28;20022;-84
2021/06/02 15:47:55;;;;;;;4.55;1.70;;;27.00;29.70;;;;;;4996442;28;20479;-83
2021/06/02 15:50:20;;;;;;;2.38;1.92;;;27.00;31.00;;;;;;4996417;28;20068;-83
2021/06/02 15:52:48;;;;;;;2.63;2.03;;;27.00;32.30;;;;;;4994022;28;20029;-83
2021/06/02 15:55:16;;;;;;;3.75;2.10;;;27.00;29.40;;;;;;5001350;28;20680;-83
2021/06/02 15:57:43;;;;;;;4.20;2.10;;;26.90;29.90;;;;;;4997064;28;20343;-83
2021/06/02 16:00:16;;;;;;;5.40;2.95;;;26.90;30.10;;;;;;4993779;28;20022;-83
2021/06/02 16:02:42;;;;;;;3.33;2.10;;;27.00;30.20;;;;;;5009352;28;20715;-84
2021/06/02 16:05:13;;;;;;;3.78;2.10;;;27.00;30.20;;;;;;4992389;28;20356;-82
2021/06/02 16:07:39;;;;;;;7.90;2.70;;;26.90;29.70;;;;;;4984039;28;20030;-82
2021/06/02 16:10:05;;;;;;;3.72;2.15;;;26.80;30.10;;;;;;4986478;28;20057;-82
2021/06/02 16:12:31;;;;;;;3.47;2.08;;;26.90;30.00;;;;;;4984907;28;20033;-81
2021/06/02 16:14:56;;;;;;;7.00;2.10;;;26.90;29.90;;;;;;4975147;28;20383;-83
2021/06/02 16:17:22;;;;;;;5.18;1.75;;;27.10;29.70;;;;;;4995546;28;20064;-82
2021/06/02 16:19:48;;;;;;;2.97;1.70;;;27.00;30.60;;;;;;4976623;28;20034;-83
2021/06/02 16:22:14;;;;;;;3.03;2.00;;;27.00;31.30;;;;;;4992786;28;20041;-83
2021/06/02 16:24:40;;;;;;;3.40;2.28;;;27.10;29.30;;;;;;4967470;28;20037;-83
2021/06/02 16:27:06;;;;;;;9.07;2.00;;;27.10;30.00;;;;;;4989334;28;20041;-83
2021/06/02 16:29:33;;;;;;;2.85;1.88;;;27.30;29.60;;;;;;4956661;28;20030;-83
2021/06/02 16:31:59;;;;;;;2.53;2.00;;;27.20;30.60;;;;;;4974077;28;20041;-83
2021/06/02 16:34:24;;;;;;;3.85;2.03;;;27.10;29.40;;;;;;4966849;28;20091;-82
2021/06/02 16:36:51;;;;;;;8.52;2.22;;;27.20;29.60;;;;;;4956490;28;20049;-83
2021/06/02 16:39:17;;;;;;;5.03;2.28;;;26.90;29.30;;;;;;4987564;28;20715;-83
2021/06/02 16:41:44;;;;;;;5.15;2.20;;;27.00;31.30;;;;;;4961001;28;20096;-83
2021/06/02 16:44:13;;;;;;;7.80;1.98;;;27.00;29.40;;;;;;4978535;28;20042;-83
2021/06/02 16:46:39;;;;;;;3.30;2.13;;;26.90;29.70;;;;;;4974350;28;20041;-83
2021/06/02 16:49:04;;;;;;;5.18;2.33;;;27.00;29.70;;;;;;4987505;28;20038;-83
2021/06/02 16:51:30;;;;;;;5.72;2.28;;;27.10;31.00;;;;;;4992523;28;20037;-83
2021/06/02 16:53:56;;;;;;;8.25;2.90;;;26.90;29.90;;;;;;4958420;28;20033;-83
2021/06/02 16:56:21;;;;;;;2.60;2.00;;;26.80;30.10;;;;;;5005865;28;20105;-83
2021/06/02 16:58:47;;;;;;;6.93;2.00;;;26.80;30.00;;;;;;4970594;28;20048;-82
2021/06/02 17:01:13;;;;;;;4.78;2.60;;;26.90;29.90;;;;;;4976311;28;20628;-82
2021/06/02 17:03:39;;;;;;;6.00;2.90;;;26.90;29.80;;;;;;4987491;28;20421;-83
2021/06/02 17:06:08;;;;;;;3.33;3.03;;;26.90;30.00;;;;;;4986391;28;20117;-83
2021/06/02 17:08:34;;;;;;;2.58;2.38;;;26.90;30.30;;;;;;4990314;28;20022;-83
2021/06/02 17:11:02;;;;;;;5.30;2.88;;;26.60;32.40;;;;;;4987726;28;20045;-83
2021/06/02 17:13:28;;;;;;;5.88;2.38;;;26.60;31.30;;;;;;5005090;28;20578;-84
2021/06/02 17:15:54;;;;;;;4.30;2.30;;;26.60;31.80;;;;;;4971073;28;20038;-84
2021/06/02 17:18:29;;;;;;;7.18;2.88;;;26.50;32.80;;;;;;4989339;28;20033;-83
2021/06/02 17:20:54;;;;;;;;;;;26.30;32.80;;;;;;4974009;28;20034;-83
2021/06/02 17:23:21;;;;;;;6.05;2.25;;;26.30;31.90;;;;;;4988273;28;19914;-83
2021/06/02 17:25:47;;;;;;;2.40;2.20;;;26.60;30.40;;;;;;4972676;28;20109;-84
2021/06/02 17:28:13;;;;;;;3.47;2.08;;;26.50;32.60;;;;;;4969240;28;20140;-83
2021/06/02 17:30:38;;;;;;;3.60;1.75;;;26.60;33.00;;;;;;4990758;28;20759;-84
2021/06/02 17:33:05;;;;;;;3.30;1.95;;;26.60;31.70;;;;;;4989999;28;20044;-83
2021/06/02 17:35:31;;;;;;;4.47;2.28;;;26.70;31.10;;;;;;4971394;28;20661;-82
2021/06/02 17:37:57;;;;;;;7.10;2.63;;;26.70;32.80;;;;;;4987661;28;20117;-83
2021/06/02 17:40:23;;;;;;;8.18;2.15;;;26.60;32.10;;;;;;4992011;28;20224;-82
2021/06/02 17:42:49;;;;;;;7.10;2.42;;;26.60;31.00;;;;;;4990132;28;20509;-83
2021/06/02 17:45:19;;;;;;;2.42;2.22;;;26.80;31.10;;;;;;4976926;28;20042;-84
2021/06/02 17:47:45;;;;;;;2.50;2.10;;;26.70;31.30;;;;;;4972732;28;20061;-84
2021/06/02 17:50:13;;;;;;;3.45;2.20;;;26.60;31.40;;;;;;4977596;28;20064;-84
2021/06/02 17:52:44;;;;;;;5.28;1.92;;;26.50;32.90;;;;;;4993648;28;20062;-84
2021/06/02 17:55:10;;;;;;;2.58;2.20;;;26.30;32.70;;;;;;4972699;28;20038;-84
2021/06/02 17:57:36;;;;;;;9.95;2.38;;;26.10;33.20;;;;;;5007128;28;20022;-83
2021/06/02 18:00:04;;;;;;;3.17;2.60;;;25.90;34.20;;;;;;4991141;28;20030;-83
2021/06/02 18:02:32;;;;;;;2.47;2.13;;;26.00;33.20;;;;;;4975144;28;20041;-83
2021/06/02 18:04:59;;;;;;;3.95;2.47;;;26.10;32.20;;;;;;4989016;28;20058;-82
2021/06/02 18:07:24;;;;;;;6.80;2.08;;;26.00;32.90;;;;;;4988254;28;20045;-84
2021/06/02 18:09:53;;;;;;;8.05;2.08;;;26.10;32.60;;;;;;4992773;28;20057;-84
2021/06/02 18:12:19;;;;;;;3.25;2.30;;;26.10;32.60;;;;;;4975943;28;21100;-83
2021/06/02 18:14:45;;;;;;;3.38;2.03;;;26.00;31.90;;;;;;4973475;28;20187;-84
2021/06/02 18:17:12;;;;;;;2.58;2.28;;;26.00;32.10;;;;;;4991114;28;20026;-83
2021/06/02 18:19:39;;;;;;;4.93;2.13;;;26.00;31.40;;;;;;4974599;28;20029;-83
2021/06/02 18:22:07;;;;;;;2.70;2.30;;;25.90;32.10;;;;;;4978375;28;20033;-82
2021/06/02 18:24:33;;;;;;;4.22;2.10;;;25.90;32.70;;;;;;4974887;28;20117;-83
2021/06/02 18:26:59;;;;;;;3.22;1.95;;;25.90;31.50;;;;;;4991142;28;20599;-83
2021/06/02 18:29:28;;;;;;;3.67;1.98;;;25.90;31.40;;;;;;4986653;28;20497;-83
2021/06/02 18:31:54;;;;;;;2.47;2.05;;;25.90;31.80;;;;;;4989845;28;20087;-83
2021/06/02 18:34:20;;;;;;;5.32;2.15;;;25.90;32.70;;;;;;4988703;28;20482;-83
2021/06/02 18:36:45;;;;;;;3.15;2.30;;;25.80;31.50;;;;;;4986320;28;20645;-83
2021/06/02 18:39:11;;;;;;;2.85;1.70;;;25.90;31.60;;;;;;4989025;28;20036;-83
2021/06/02 18:41:36;;;;;;;2.70;2.00;;;25.80;31.90;;;;;;4973070;28;20754;-83
2021/06/02 18:44:02;;;;;;;5.18;2.22;;;25.80;32.10;;;;;;4989963;28;20040;-83
2021/06/02 18:46:30;;;;;;;3.00;2.20;;;25.70;31.40;;;;;;4991400;28;20037;-83
2021/06/02 18:48:56;;;;;;;4.00;2.28;;;25.60;32.70;;;;;;4972919;28;20026;-83
2021/06/02 18:51:21;;;;;;;5.03;2.35;;;25.50;32.10;;;;;;4990712;28;20726;-83
2021/06/02 18:53:47;;;;;;;6.38;2.10;;;25.40;32.60;;;;;;5003903;28;20140;-84
2021/06/02 18:56:13;;;;;;;5.68;2.40;;;25.40;33.00;;;;;;4987501;28;20026;-83
2021/06/02 18:58:39;;;;;;;5.07;2.08;;;25.50;32.60;;;;;;4988772;28;20282;-83
2021/06/02 19:01:05;;;;;;;4.45;2.20;;;25.40;33.40;;;;;;4985761;28;20072;-82
2021/06/02 19:03:31;;;;;;;7.25;2.10;;;25.40;32.40;;;;;;4986602;28;20034;-82
2021/06/02 19:05:57;;;;;;;4.55;2.38;;;25.50;32.40;;;;;;4986125;28;20111;-82
2021/06/02 19:08:25;;;;;;;7.10;2.28;;;25.30;32.50;;;;;;4985276;28;20463;-82
2021/06/02 19:10:50;;;;;;;2.45;2.25;;;25.30;32.70;;;;;;4969283;28;20562;-82
2021/06/02 19:13:20;;;;;;;4.13;2.25;;;25.30;32.60;;;;;;5001996;28;20615;-83
2021/06/02 19:15:47;;;;;;;4.75;2.38;;;25.00;33.10;;;;;;4985580;28;20372;-84
2021/06/02 19:18:13;;;;;;;5.30;2.50;;;25.00;32.80;;;;;;4987056;28;20057;-82
2021/06/02 19:20:39;;;;;;;3.97;2.15;;;24.90;33.40;;;;;;4969395;28;20494;-82
2021/06/02 19:23:05;;;;;;;6.70;2.50;;;24.90;33.20;;;;;;4969532;28;20022;-82
2021/06/02 19:25:31;;;;;;;4.85;2.40;;;24.70;34.20;;;;;;4988895;28;20353;-83
2021/06/02 19:27:57;;;;;;;4.78;2.47;;;24.50;34.10;;;;;;4990676;28;20722;-82
2021/06/02 19:30:23;;;;;;;4.30;2.25;;;24.50;33.70;;;;;;4985437;28;20038;-82